sensor_id;sensor_type;location;lat;lon;timestamp;P1;durP1;ratioP1;P2;durP2;ratioP2
56653;SDS011;45096;52.302;4.634;2023-04-12T00:01:08;8.10;;;3.38;;
56653;SDS011;45096;52.302;4.634;2023-04-12T00:03:33;4.65;;;2.63;;
56653;SDS011;45096;52.302;4.634;2023-04-12T00:05:59;3.47;;;3.10;;
56653;SDS011;45096;52.302;4.634;2023-04-12T00:08:24;5.05;;;2.75;;
56653;SDS011;45096;52.302;4.634;2023-04-12T00:10:50;3.13;;;2.13;;
56653;SDS011;45096;52.302;4.634;2023-04-12T00:13:16;3.33;;;2.58;;
56653;SDS011;45096;52.302;4.634;2023-04-12T00:15:42;5.75;;;2.88;;
56653;SDS011;45096;52.302;4.634;2023-04-12T00:18:08;5.30;;;2.70;;
56653;SDS011;45096;52.302;4.634;2023-04-12T00:20:33;6.32;;;2.35;;
56653;SDS011;45096;52.302;4.634;2023-04-12T00:22:59;5.47;;;2.97;;
56653;SDS011;45096;52.302;4.634;2023-04-12T00:25:24;5.43;;;3.28;;
56653;SDS011;45096;52.302;4.634;2023-04-12T00:27:50;8.23;;;2.80;;
56653;SDS011;45096;52.302;4.634;2023-04-12T00:30:15;2.83;;;2.08;;
56653;SDS011;45096;52.302;4.634;2023-04-12T00:32:42;5.00;;;2.60;;
56653;SDS011;45096;52.302;4.634;2023-04-12T00:35:07;6.35;;;2.58;;
56653;SDS011;45096;52.302;4.634;2023-04-12T00:37:33;4.18;;;2.40;;
56653;SDS011;45096;52.302;4.634;2023-04-12T00:39:58;6.30;;;2.65;;
56653;SDS011;45096;52.302;4.634;2023-04-12T00:42:24;5.80;;;2.40;;
56653;SDS011;45096;52.302;4.634;2023-04-12T00:44:49;5.63;;;2.53;;
56653;SDS011;45096;52.302;4.634;2023-04-12T00:47:15;4.72;;;2.67;;
56653;SDS011;45096;52.302;4.634;2023-04-12T00:49:41;3.55;;;2.78;;
56653;SDS011;45096;52.302;4.634;2023-04-12T00:52:07;5.38;;;2.53;;
56653;SDS011;45096;52.302;4.634;2023-04-12T00:54:33;4.05;;;2.80;;
56653;SDS011;45096;52.302;4.634;2023-04-12T00:56:59;4.78;;;3.05;;
56653;SDS011;45096;52.302;4.634;2023-04-12T00:59:25;3.58;;;2.80;;
56653;SDS011;45096;52.302;4.634;2023-04-12T01:01:51;4.65;;;2.17;;
56653;SDS011;45096;52.302;4.634;2023-04-12T01:04:16;5.63;;;3.15;;
56653;SDS011;45096;52.302;4.634;2023-04-12T01:06:46;3.08;;;1.90;;
56653;SDS011;45096;52.302;4.634;2023-04-12T01:09:22;4.88;;;2.47;;
56653;SDS011;45096;52.302;4.634;2023-04-12T01:11:54;4.95;;;2.25;;
56653;SDS011;45096;52.302;4.634;2023-04-12T01:14:27;3.95;;;2.80;;
56653;SDS011;45096;52.302;4.634;2023-04-12T01:16:56;3.05;;;2.05;;
56653;SDS011;45096;52.302;4.634;2023-04-12T01:19:28;4.63;;;2.22;;
56653;SDS011;45096;52.302;4.634;2023-04-12T01:22:09;4.15;;;2.65;;
56653;SDS011;45096;52.302;4.634;2023-04-12T01:24:42;3.85;;;1.90;;
56653;SDS011;45096;52.302;4.634;2023-04-12T01:27:19;3.03;;;1.65;;
56653;SDS011;45096;52.302;4.634;2023-04-12T01:29:51;2.53;;;2.20;;
56653;SDS011;45096;52.302;4.634;2023-04-12T01:32:17;2.28;;;1.95;;
56653;SDS011;45096;52.302;4.634;2023-04-12T01:34:43;3.28;;;2.15;;
56653;SDS011;45096;52.302;4.634;2023-04-12T01:37:09;2.65;;;1.80;;
56653;SDS011;45096;52.302;4.634;2023-04-12T01:39:35;3.58;;;1.77;;
56653;SDS011;45096;52.302;4.634;2023-04-12T01:42:01;2.53;;;1.95;;
56653;SDS011;45096;52.302;4.634;2023-04-12T01:44:28;1.55;;;1.52;;
56653;SDS011;45096;52.302;4.634;2023-04-12T01:46:53;3.05;;;2.05;;
56653;SDS011;45096;52.302;4.634;2023-04-12T01:49:18;2.83;;;1.88;;
56653;SDS011;45096;52.302;4.634;2023-04-12T01:51:50;2.28;;;2.00;;
56653;SDS011;45096;52.302;4.634;2023-04-12T01:54:20;2.17;;;1.73;;
56653;SDS011;45096;52.302;4.634;2023-04-12T01:56:49;2.13;;;1.92;;
56653;SDS011;45096;52.302;4.634;2023-04-12T01:59:17;1.88;;;1.77;;
56653;SDS011;45096;52.302;4.634;2023-04-12T02:01:44;1.80;;;1.70;;
56653;SDS011;45096;52.302;4.634;2023-04-12T02:04:10;4.78;;;1.85;;
56653;SDS011;45096;52.302;4.634;2023-04-12T02:06:36;1.60;;;1.50;;
56653;SDS011;45096;52.302;4.634;2023-04-12T02:09:02;3.30;;;1.73;;
56653;SDS011;45096;52.302;4.634;2023-04-12T02:11:28;1.90;;;1.65;;
56653;SDS011;45096;52.302;4.634;2023-04-12T02:13:54;1.55;;;1.40;;
56653;SDS011;45096;52.302;4.634;2023-04-12T02:16:19;1.55;;;1.55;;
56653;SDS011;45096;52.302;4.634;2023-04-12T02:18:46;2.65;;;1.50;;
56653;SDS011;45096;52.302;4.634;2023-04-12T02:21:12;2.20;;;2.00;;
56653;SDS011;45096;52.302;4.634;2023-04-12T02:23:37;2.65;;;1.45;;
56653;SDS011;45096;52.302;4.634;2023-04-12T02:26:02;2.05;;;1.85;;
56653;SDS011;45096;52.302;4.634;2023-04-12T02:28:28;2.00;;;1.42;;
56653;SDS011;45096;52.302;4.634;2023-04-12T02:30:53;1.67;;;1.20;;
56653;SDS011;45096;52.302;4.634;2023-04-12T02:33:19;2.15;;;1.60;;
56653;SDS011;45096;52.302;4.634;2023-04-12T02:35:46;3.05;;;1.95;;
56653;SDS011;45096;52.302;4.634;2023-04-12T02:38:11;1.70;;;1.50;;
56653;SDS011;45096;52.302;4.634;2023-04-12T02:40:37;1.75;;;1.52;;
56653;SDS011;45096;52.302;4.634;2023-04-12T02:43:02;2.33;;;2.03;;
56653;SDS011;45096;52.302;4.634;2023-04-12T02:45:28;1.42;;;1.33;;
56653;SDS011;45096;52.302;4.634;2023-04-12T02:47:53;1.67;;;1.25;;
56653;SDS011;45096;52.302;4.634;2023-04-12T02:50:19;2.63;;;1.70;;
56653;SDS011;45096;52.302;4.634;2023-04-12T02:52:45;3.42;;;1.80;;
56653;SDS011;45096;52.302;4.634;2023-04-12T02:55:11;3.53;;;1.80;;
56653;SDS011;45096;52.302;4.634;2023-04-12T02:57:36;2.25;;;1.70;;
56653;SDS011;45096;52.302;4.634;2023-04-12T03:00:02;2.50;;;1.92;;
56653;SDS011;45096;52.302;4.634;2023-04-12T03:02:28;3.83;;;1.50;;
56653;SDS011;45096;52.302;4.634;2023-04-12T03:04:53;1.90;;;1.80;;
56653;SDS011;45096;52.302;4.634;2023-04-12T03:07:19;1.70;;;1.67;;
56653;SDS011;45096;52.302;4.634;2023-04-12T03:09:46;3.00;;;1.88;;
56653;SDS011;45096;52.302;4.634;2023-04-12T03:12:13;2.65;;;1.73;;
56653;SDS011;45096;52.302;4.634;2023-04-12T03:14:39;2.45;;;2.25;;
56653;SDS011;45096;52.302;4.634;2023-04-12T03:17:04;2.33;;;1.70;;
56653;SDS011;45096;52.302;4.634;2023-04-12T03:19:29;2.92;;;1.60;;
56653;SDS011;45096;52.302;4.634;2023-04-12T03:21:55;1.88;;;1.40;;
56653;SDS011;45096;52.302;4.634;2023-04-12T03:24:20;2.40;;;1.45;;
56653;SDS011;45096;52.302;4.634;2023-04-12T03:26:47;2.53;;;1.45;;
56653;SDS011;45096;52.302;4.634;2023-04-12T03:29:12;4.40;;;1.88;;
56653;SDS011;45096;52.302;4.634;2023-04-12T03:31:38;5.18;;;1.60;;
56653;SDS011;45096;52.302;4.634;2023-04-12T03:34:03;1.67;;;1.23;;
56653;SDS011;45096;52.302;4.634;2023-04-12T03:36:29;1.70;;;1.60;;
56653;SDS011;45096;52.302;4.634;2023-04-12T03:38:54;1.50;;;1.40;;
56653;SDS011;45096;52.302;4.634;2023-04-12T03:41:20;1.45;;;1.35;;
56653;SDS011;45096;52.302;4.634;2023-04-12T03:43:47;3.50;;;1.65;;
56653;SDS011;45096;52.302;4.634;2023-04-12T03:46:13;1.50;;;1.23;;
56653;SDS011;45096;52.302;4.634;2023-04-12T03:48:38;1.40;;;1.30;;
56653;SDS011;45096;52.302;4.634;2023-04-12T03:51:04;3.17;;;1.30;;
56653;SDS011;45096;52.302;4.634;2023-04-12T03:53:29;2.50;;;1.90;;
56653;SDS011;45096;52.302;4.634;2023-04-12T03:55:55;2.25;;;1.80;;
56653;SDS011;45096;52.302;4.634;2023-04-12T03:58:20;1.40;;;1.30;;
56653;SDS011;45096;52.302;4.634;2023-04-12T04:00:47;1.33;;;1.23;;
56653;SDS011;45096;52.302;4.634;2023-04-12T04:03:12;2.90;;;1.95;;
56653;SDS011;45096;52.302;4.634;2023-04-12T04:05:38;1.20;;;1.20;;
56653;SDS011;45096;52.302;4.634;2023-04-12T04:08:04;1.35;;;1.33;;
56653;SDS011;45096;52.302;4.634;2023-04-12T04:10:29;25.58;;;19.55;;
56653;SDS011;45096;52.302;4.634;2023-04-12T04:12:55;23.25;;;15.63;;
56653;SDS011;45096;52.302;4.634;2023-04-12T04:15:20;14.30;;;11.27;;
56653;SDS011;45096;52.302;4.634;2023-04-12T04:17:47;7.22;;;6.25;;
56653;SDS011;45096;52.302;4.634;2023-04-12T04:20:13;2.97;;;2.78;;
56653;SDS011;45096;52.302;4.634;2023-04-12T04:22:38;2.40;;;1.90;;
56653;SDS011;45096;52.302;4.634;2023-04-12T04:25:04;2.08;;;1.50;;
56653;SDS011;45096;52.302;4.634;2023-04-12T04:27:30;2.33;;;1.75;;
56653;SDS011;45096;52.302;4.634;2023-04-12T04:29:55;1.75;;;1.63;;
56653;SDS011;45096;52.302;4.634;2023-04-12T04:32:21;2.50;;;1.50;;
56653;SDS011;45096;52.302;4.634;2023-04-12T04:34:48;2.00;;;1.90;;
56653;SDS011;45096;52.302;4.634;2023-04-12T04:37:14;1.60;;;1.60;;
56653;SDS011;45096;52.302;4.634;2023-04-12T04:39:39;2.13;;;1.65;;
56653;SDS011;45096;52.302;4.634;2023-04-12T04:42:05;1.83;;;1.70;;
56653;SDS011;45096;52.302;4.634;2023-04-12T04:44:30;2.88;;;1.80;;
56653;SDS011;45096;52.302;4.634;2023-04-12T04:46:56;2.13;;;2.03;;
56653;SDS011;45096;52.302;4.634;2023-04-12T04:49:21;2.10;;;2.00;;
56653;SDS011;45096;52.302;4.634;2023-04-12T04:51:48;2.80;;;2.55;;
56653;SDS011;45096;52.302;4.634;2023-04-12T04:54:13;2.15;;;2.00;;
56653;SDS011;45096;52.302;4.634;2023-04-12T04:56:39;2.33;;;2.22;;
56653;SDS011;45096;52.302;4.634;2023-04-12T04:59:04;2.22;;;2.13;;
56653;SDS011;45096;52.302;4.634;2023-04-12T05:01:29;2.78;;;2.55;;
56653;SDS011;45096;52.302;4.634;2023-04-12T05:03:55;3.10;;;2.90;;
56653;SDS011;45096;52.302;4.634;2023-04-12T05:06:20;2.75;;;2.55;;
56653;SDS011;45096;52.302;4.634;2023-04-12T05:08:47;2.70;;;2.60;;
56653;SDS011;45096;52.302;4.634;2023-04-12T05:11:12;4.25;;;2.80;;
56653;SDS011;45096;52.302;4.634;2023-04-12T05:13:38;3.25;;;2.95;;
56653;SDS011;45096;52.302;4.634;2023-04-12T05:16:04;3.25;;;3.10;;
56653;SDS011;45096;52.302;4.634;2023-04-12T05:18:30;3.22;;;3.03;;
56653;SDS011;45096;52.302;4.634;2023-04-12T05:21:00;4.43;;;4.13;;
56653;SDS011;45096;52.302;4.634;2023-04-12T05:23:26;3.25;;;3.05;;
56653;SDS011;45096;52.302;4.634;2023-04-12T05:25:52;3.38;;;2.97;;
56653;SDS011;45096;52.302;4.634;2023-04-12T05:28:18;4.30;;;3.83;;
56653;SDS011;45096;52.302;4.634;2023-04-12T05:30:43;4.90;;;4.55;;
56653;SDS011;45096;52.302;4.634;2023-04-12T05:33:09;43.30;;;29.88;;
56653;SDS011;45096;52.302;4.634;2023-04-12T05:35:35;60.08;;;36.13;;
56653;SDS011;45096;52.302;4.634;2023-04-12T05:38:00;25.92;;;15.18;;
56653;SDS011;45096;52.302;4.634;2023-04-12T05:40:25;16.05;;;10.07;;
56653;SDS011;45096;52.302;4.634;2023-04-12T05:42:52;10.27;;;5.40;;
56653;SDS011;45096;52.302;4.634;2023-04-12T05:45:18;7.43;;;3.95;;
56653;SDS011;45096;52.302;4.634;2023-04-12T05:47:43;10.25;;;3.70;;
56653;SDS011;45096;52.302;4.634;2023-04-12T05:50:09;9.18;;;3.38;;
56653;SDS011;45096;52.302;4.634;2023-04-12T05:52:35;10.70;;;3.58;;
56653;SDS011;45096;52.302;4.634;2023-04-12T05:55:00;7.22;;;2.70;;
56653;SDS011;45096;52.302;4.634;2023-04-12T05:57:26;4.38;;;2.92;;
56653;SDS011;45096;52.302;4.634;2023-04-12T05:59:53;9.25;;;3.03;;
56653;SDS011;45096;52.302;4.634;2023-04-12T06:02:18;13.00;;;3.05;;
56653;SDS011;45096;52.302;4.634;2023-04-12T06:04:44;12.60;;;4.07;;
56653;SDS011;45096;52.302;4.634;2023-04-12T06:07:09;15.55;;;4.75;;
56653;SDS011;45096;52.302;4.634;2023-04-12T06:09:35;17.17;;;4.05;;
56653;SDS011;45096;52.302;4.634;2023-04-12T06:12:00;12.20;;;3.50;;
56653;SDS011;45096;52.302;4.634;2023-04-12T06:14:25;12.77;;;4.65;;
56653;SDS011;45096;52.302;4.634;2023-04-12T06:16:52;21.88;;;4.60;;
56653;SDS011;45096;52.302;4.634;2023-04-12T06:19:18;9.45;;;2.92;;
56653;SDS011;45096;52.302;4.634;2023-04-12T06:21:43;8.60;;;3.53;;
56653;SDS011;45096;52.302;4.634;2023-04-12T06:24:08;15.68;;;4.22;;
56653;SDS011;45096;52.302;4.634;2023-04-12T06:26:34;13.38;;;2.90;;
56653;SDS011;45096;52.302;4.634;2023-04-12T06:28:59;13.85;;;3.92;;
56653;SDS011;45096;52.302;4.634;2023-04-12T06:31:25;16.05;;;4.60;;
56653;SDS011;45096;52.302;4.634;2023-04-12T06:33:52;13.30;;;3.22;;
56653;SDS011;45096;52.302;4.634;2023-04-12T06:36:17;13.38;;;2.95;;
56653;SDS011;45096;52.302;4.634;2023-04-12T06:38:43;12.10;;;4.03;;
56653;SDS011;45096;52.302;4.634;2023-04-12T06:41:08;17.45;;;4.28;;
56653;SDS011;45096;52.302;4.634;2023-04-12T06:43:34;14.45;;;3.65;;
56653;SDS011;45096;52.302;4.634;2023-04-12T06:45:59;22.88;;;4.07;;
56653;SDS011;45096;52.302;4.634;2023-04-12T06:48:25;17.63;;;4.00;;
56653;SDS011;45096;52.302;4.634;2023-04-12T06:50:52;12.90;;;4.50;;
56653;SDS011;45096;52.302;4.634;2023-04-12T06:53:17;15.60;;;4.03;;
56653;SDS011;45096;52.302;4.634;2023-04-12T06:55:43;17.38;;;4.18;;
56653;SDS011;45096;52.302;4.634;2023-04-12T06:58:08;16.67;;;4.78;;
56653;SDS011;45096;52.302;4.634;2023-04-12T07:00:34;22.95;;;4.10;;
56653;SDS011;45096;52.302;4.634;2023-04-12T07:02:59;18.83;;;4.28;;
56653;SDS011;45096;52.302;4.634;2023-04-12T07:05:24;16.55;;;4.07;;
56653;SDS011;45096;52.302;4.634;2023-04-12T07:07:51;20.02;;;5.03;;
56653;SDS011;45096;52.302;4.634;2023-04-12T07:10:17;19.33;;;4.93;;
56653;SDS011;45096;52.302;4.634;2023-04-12T07:12:42;15.18;;;4.22;;
56653;SDS011;45096;52.302;4.634;2023-04-12T07:15:08;16.10;;;4.70;;
56653;SDS011;45096;52.302;4.634;2023-04-12T07:17:34;15.07;;;3.65;;
56653;SDS011;45096;52.302;4.634;2023-04-12T07:19:59;17.73;;;5.53;;
56653;SDS011;45096;52.302;4.634;2023-04-12T07:22:25;18.30;;;4.28;;
56653;SDS011;45096;52.302;4.634;2023-04-12T07:24:51;14.48;;;3.90;;
56653;SDS011;45096;52.302;4.634;2023-04-12T07:27:17;14.25;;;3.47;;
56653;SDS011;45096;52.302;4.634;2023-04-12T07:29:42;14.00;;;4.40;;
56653;SDS011;45096;52.302;4.634;2023-04-12T07:32:08;14.55;;;3.70;;
56653;SDS011;45096;52.302;4.634;2023-04-12T07:34:33;16.33;;;3.63;;
56653;SDS011;45096;52.302;4.634;2023-04-12T07:36:59;17.45;;;4.57;;
56653;SDS011;45096;52.302;4.634;2023-04-12T07:39:24;17.38;;;5.22;;
56653;SDS011;45096;52.302;4.634;2023-04-12T07:41:51;19.95;;;5.50;;
56653;SDS011;45096;52.302;4.634;2023-04-12T07:44:17;15.95;;;3.40;;
56653;SDS011;45096;52.302;4.634;2023-04-12T07:46:42;15.73;;;4.32;;
56653;SDS011;45096;52.302;4.634;2023-04-12T07:49:08;21.60;;;4.60;;
56653;SDS011;45096;52.302;4.634;2023-04-12T07:51:33;10.05;;;3.40;;
56653;SDS011;45096;52.302;4.634;2023-04-12T07:53:59;13.68;;;3.47;;
56653;SDS011;45096;52.302;4.634;2023-04-12T07:56:24;11.02;;;3.92;;
56653;SDS011;45096;52.302;4.634;2023-04-12T07:58:51;12.30;;;3.35;;
56653;SDS011;45096;52.302;4.634;2023-04-12T08:01:16;15.38;;;4.20;;
56653;SDS011;45096;52.302;4.634;2023-04-12T08:03:42;15.95;;;3.95;;
56653;SDS011;45096;52.302;4.634;2023-04-12T08:06:07;12.02;;;3.60;;
56653;SDS011;45096;52.302;4.634;2023-04-12T08:08:33;17.27;;;4.10;;
56653;SDS011;45096;52.302;4.634;2023-04-12T08:10:58;17.88;;;3.95;;
56653;SDS011;45096;52.302;4.634;2023-04-12T08:13:24;16.65;;;3.88;;
56653;SDS011;45096;52.302;4.634;2023-04-12T08:15:51;12.52;;;3.38;;
56653;SDS011;45096;52.302;4.634;2023-04-12T08:18:16;19.10;;;3.10;;
56653;SDS011;45096;52.302;4.634;2023-04-12T08:20:41;14.68;;;3.53;;
56653;SDS011;45096;52.302;4.634;2023-04-12T08:23:07;13.35;;;3.65;;
56653;SDS011;45096;52.302;4.634;2023-04-12T08:25:34;18.17;;;4.55;;
56653;SDS011;45096;52.302;4.634;2023-04-12T08:27:59;13.90;;;3.15;;
56653;SDS011;45096;52.302;4.634;2023-04-12T08:30:25;11.30;;;3.20;;
56653;SDS011;45096;52.302;4.634;2023-04-12T08:32:51;17.38;;;4.10;;
56653;SDS011;45096;52.302;4.634;2023-04-12T08:35:17;13.82;;;3.47;;
56653;SDS011;45096;52.302;4.634;2023-04-12T08:37:42;13.20;;;3.38;;
56653;SDS011;45096;52.302;4.634;2023-04-12T08:40:08;13.35;;;3.78;;
56653;SDS011;45096;52.302;4.634;2023-04-12T08:42:34;16.27;;;3.22;;
56653;SDS011;45096;52.302;4.634;2023-04-12T08:45:02;13.77;;;4.07;;
56653;SDS011;45096;52.302;4.634;2023-04-12T08:47:28;14.50;;;3.60;;
56653;SDS011;45096;52.302;4.634;2023-04-12T08:49:55;11.57;;;3.65;;
56653;SDS011;45096;52.302;4.634;2023-04-12T08:52:21;12.88;;;3.65;;
56653;SDS011;45096;52.302;4.634;2023-04-12T08:54:46;16.38;;;4.07;;
56653;SDS011;45096;52.302;4.634;2023-04-12T08:57:12;14.70;;;3.28;;
56653;SDS011;45096;52.302;4.634;2023-04-12T08:59:38;14.57;;;3.33;;
56653;SDS011;45096;52.302;4.634;2023-04-12T09:02:06;16.05;;;3.85;;
56653;SDS011;45096;52.302;4.634;2023-04-12T09:04:31;12.05;;;3.30;;
56653;SDS011;45096;52.302;4.634;2023-04-12T09:06:58;10.85;;;3.63;;
56653;SDS011;45096;52.302;4.634;2023-04-12T09:09:39;9.95;;;3.15;;
56653;SDS011;45096;52.302;4.634;2023-04-12T09:12:05;13.75;;;3.53;;
56653;SDS011;45096;52.302;4.634;2023-04-12T09:14:31;9.75;;;3.17;;
56653;SDS011;45096;52.302;4.634;2023-04-12T09:16:56;13.77;;;3.65;;
56653;SDS011;45096;52.302;4.634;2023-04-12T09:19:31;14.05;;;4.45;;
56653;SDS011;45096;52.302;4.634;2023-04-12T09:21:59;18.75;;;4.97;;
56653;SDS011;45096;52.302;4.634;2023-04-12T09:24:24;15.43;;;4.82;;
56653;SDS011;45096;52.302;4.634;2023-04-12T09:26:55;20.45;;;6.43;;
56653;SDS011;45096;52.302;4.634;2023-04-12T09:29:25;16.23;;;5.72;;
56653;SDS011;45096;52.302;4.634;2023-04-12T09:31:54;21.75;;;5.20;;
56653;SDS011;45096;52.302;4.634;2023-04-12T09:34:20;12.95;;;3.13;;
56653;SDS011;45096;52.302;4.634;2023-04-12T09:36:45;10.98;;;2.85;;
56653;SDS011;45096;52.302;4.634;2023-04-12T09:39:12;8.85;;;2.58;;
56653;SDS011;45096;52.302;4.634;2023-04-12T09:41:38;12.48;;;3.15;;
56653;SDS011;45096;52.302;4.634;2023-04-12T09:44:03;10.77;;;3.70;;
56653;SDS011;45096;52.302;4.634;2023-04-12T09:46:29;17.92;;;4.15;;
56653;SDS011;45096;52.302;4.634;2023-04-12T09:48:55;14.48;;;2.92;;
56653;SDS011;45096;52.302;4.634;2023-04-12T09:51:24;14.48;;;3.58;;
56653;SDS011;45096;52.302;4.634;2023-04-12T09:53:51;8.32;;;2.78;;
56653;SDS011;45096;52.302;4.634;2023-04-12T09:56:18;10.40;;;3.22;;
56653;SDS011;45096;52.302;4.634;2023-04-12T09:58:45;8.90;;;2.78;;
56653;SDS011;45096;52.302;4.634;2023-04-12T10:01:11;9.25;;;2.38;;
56653;SDS011;45096;52.302;4.634;2023-04-12T10:03:36;7.72;;;2.97;;
56653;SDS011;45096;52.302;4.634;2023-04-12T10:06:02;7.53;;;2.50;;
56653;SDS011;45096;52.302;4.634;2023-04-12T10:08:28;6.55;;;2.35;;
56653;SDS011;45096;52.302;4.634;2023-04-12T10:10:54;5.88;;;2.20;;
56653;SDS011;45096;52.302;4.634;2023-04-12T10:13:21;8.38;;;2.20;;
56653;SDS011;45096;52.302;4.634;2023-04-12T10:15:47;8.20;;;2.75;;
56653;SDS011;45096;52.302;4.634;2023-04-12T10:18:13;5.65;;;2.47;;
56653;SDS011;45096;52.302;4.634;2023-04-12T10:20:40;5.25;;;1.80;;
56653;SDS011;45096;52.302;4.634;2023-04-12T10:23:05;5.55;;;2.22;;
56653;SDS011;45096;52.302;4.634;2023-04-12T10:25:32;8.45;;;2.50;;
56653;SDS011;45096;52.302;4.634;2023-04-12T10:28:11;11.60;;;2.92;;
56653;SDS011;45096;52.302;4.634;2023-04-12T10:30:39;13.15;;;3.67;;
56653;SDS011;45096;52.302;4.634;2023-04-12T10:33:11;13.02;;;3.55;;
56653;SDS011;45096;52.302;4.634;2023-04-12T10:35:54;12.15;;;3.50;;
56653;SDS011;45096;52.302;4.634;2023-04-12T10:38:20;14.75;;;3.60;;
56653;SDS011;45096;52.302;4.634;2023-04-12T10:43:39;7.65;;;2.70;;
56653;SDS011;45096;52.302;4.634;2023-04-12T10:46:06;14.70;;;3.67;;
56653;SDS011;45096;52.302;4.634;2023-04-12T10:48:32;19.90;;;4.57;;
56653;SDS011;45096;52.302;4.634;2023-04-12T10:51:11;15.00;;;4.45;;
56653;SDS011;45096;52.302;4.634;2023-04-12T10:53:41;14.85;;;3.03;;
56653;SDS011;45096;52.302;4.634;2023-04-12T10:58:59;16.50;;;3.28;;
56653;SDS011;45096;52.302;4.634;2023-04-12T11:01:26;15.00;;;3.50;;
56653;SDS011;45096;52.302;4.634;2023-04-12T11:04:05;16.38;;;3.45;;
56653;SDS011;45096;52.302;4.634;2023-04-12T11:09:22;12.73;;;3.00;;
56653;SDS011;45096;52.302;4.634;2023-04-12T11:11:48;15.55;;;4.03;;
56653;SDS011;45096;52.302;4.634;2023-04-12T11:14:14;15.02;;;3.75;;
56653;SDS011;45096;52.302;4.634;2023-04-12T11:19:44;12.13;;;3.85;;
56653;SDS011;45096;52.302;4.634;2023-04-12T11:22:14;12.77;;;3.58;;
56653;SDS011;45096;52.302;4.634;2023-04-12T11:24:43;12.95;;;3.65;;
56653;SDS011;45096;52.302;4.634;2023-04-12T11:27:09;14.18;;;3.38;;
56653;SDS011;45096;52.302;4.634;2023-04-12T11:29:35;14.70;;;4.00;;
56653;SDS011;45096;52.302;4.634;2023-04-12T11:32:01;11.98;;;3.22;;
56653;SDS011;45096;52.302;4.634;2023-04-12T11:34:30;9.77;;;3.08;;
56653;SDS011;45096;52.302;4.634;2023-04-12T11:36:57;7.40;;;2.88;;
56653;SDS011;45096;52.302;4.634;2023-04-12T11:39:24;15.93;;;4.10;;
56653;SDS011;45096;52.302;4.634;2023-04-12T11:41:50;11.77;;;3.83;;
56653;SDS011;45096;52.302;4.634;2023-04-12T11:44:16;12.52;;;4.40;;
56653;SDS011;45096;52.302;4.634;2023-04-12T11:46:41;11.45;;;3.17;;
56653;SDS011;45096;52.302;4.634;2023-04-12T11:49:07;10.77;;;3.50;;
56653;SDS011;45096;52.302;4.634;2023-04-12T11:51:33;10.65;;;3.40;;
56653;SDS011;45096;52.302;4.634;2023-04-12T11:54:00;5.95;;;2.65;;
56653;SDS011;45096;52.302;4.634;2023-04-12T11:56:27;6.22;;;2.38;;
56653;SDS011;45096;52.302;4.634;2023-04-12T11:58:52;9.30;;;2.55;;
56653;SDS011;45096;52.302;4.634;2023-04-12T12:01:18;9.70;;;2.83;;
56653;SDS011;45096;52.302;4.634;2023-04-12T12:03:45;10.32;;;3.17;;
56653;SDS011;45096;52.302;4.634;2023-04-12T12:06:11;12.73;;;3.13;;
56653;SDS011;45096;52.302;4.634;2023-04-12T12:08:37;12.43;;;2.88;;
56653;SDS011;45096;52.302;4.634;2023-04-12T12:11:05;13.70;;;4.82;;
56653;SDS011;45096;52.302;4.634;2023-04-12T12:13:42;16.45;;;4.13;;
56653;SDS011;45096;52.302;4.634;2023-04-12T12:16:08;13.50;;;4.95;;
56653;SDS011;45096;52.302;4.634;2023-04-12T12:18:38;7.90;;;3.15;;
56653;SDS011;45096;52.302;4.634;2023-04-12T12:21:06;7.95;;;2.45;;
56653;SDS011;45096;52.302;4.634;2023-04-12T12:23:32;7.55;;;2.35;;
56653;SDS011;45096;52.302;4.634;2023-04-12T12:25:58;5.75;;;2.33;;
56653;SDS011;45096;52.302;4.634;2023-04-12T12:28:25;4.90;;;2.03;;
56653;SDS011;45096;52.302;4.634;2023-04-12T12:30:51;10.10;;;2.33;;
56653;SDS011;45096;52.302;4.634;2023-04-12T12:33:18;6.22;;;2.17;;
56653;SDS011;45096;52.302;4.634;2023-04-12T12:35:43;8.15;;;2.63;;
56653;SDS011;45096;52.302;4.634;2023-04-12T12:38:09;7.75;;;2.13;;
56653;SDS011;45096;52.302;4.634;2023-04-12T12:40:34;5.40;;;1.70;;
56653;SDS011;45096;52.302;4.634;2023-04-12T12:42:59;9.45;;;2.03;;
56653;SDS011;45096;52.302;4.634;2023-04-12T12:45:27;5.07;;;1.92;;
56653;SDS011;45096;52.302;4.634;2023-04-12T12:47:53;7.97;;;2.70;;
56653;SDS011;45096;52.302;4.634;2023-04-12T12:50:21;6.53;;;2.75;;
56653;SDS011;45096;52.302;4.634;2023-04-12T12:52:47;7.07;;;2.10;;
56653;SDS011;45096;52.302;4.634;2023-04-12T12:55:12;6.85;;;2.28;;
56653;SDS011;45096;52.302;4.634;2023-04-12T12:57:38;10.02;;;2.15;;
56653;SDS011;45096;52.302;4.634;2023-04-12T13:00:04;6.35;;;1.75;;
56653;SDS011;45096;52.302;4.634;2023-04-12T13:02:32;7.82;;;2.65;;
56653;SDS011;45096;52.302;4.634;2023-04-12T13:04:57;7.93;;;2.22;;
56653;SDS011;45096;52.302;4.634;2023-04-12T13:07:23;6.53;;;2.17;;
56653;SDS011;45096;52.302;4.634;2023-04-12T13:09:48;8.18;;;2.15;;
56653;SDS011;45096;52.302;4.634;2023-04-12T13:12:14;6.38;;;2.03;;
56653;SDS011;45096;52.302;4.634;2023-04-12T13:14:39;2.53;;;1.30;;
56653;SDS011;45096;52.302;4.634;2023-04-12T13:17:05;5.88;;;2.00;;
56653;SDS011;45096;52.302;4.634;2023-04-12T13:19:31;5.07;;;2.05;;
56653;SDS011;45096;52.302;4.634;2023-04-12T13:21:57;6.60;;;2.03;;
56653;SDS011;45096;52.302;4.634;2023-04-12T13:24:22;4.57;;;1.45;;
56653;SDS011;45096;52.302;4.634;2023-04-12T13:26:48;5.07;;;1.52;;
56653;SDS011;45096;52.302;4.634;2023-04-12T13:29:13;2.35;;;1.70;;
56653;SDS011;45096;52.302;4.634;2023-04-12T13:31:39;4.53;;;2.20;;
56653;SDS011;45096;52.302;4.634;2023-04-12T13:34:04;9.38;;;2.10;;
56653;SDS011;45096;52.302;4.634;2023-04-12T13:36:31;4.53;;;1.88;;
56653;SDS011;45096;52.302;4.634;2023-04-12T13:38:56;4.68;;;1.92;;
56653;SDS011;45096;52.302;4.634;2023-04-12T13:41:22;5.28;;;1.58;;
56653;SDS011;45096;52.302;4.634;2023-04-12T13:43:47;5.07;;;1.73;;
56653;SDS011;45096;52.302;4.634;2023-04-12T13:46:12;7.43;;;2.28;;
56653;SDS011;45096;52.302;4.634;2023-04-12T13:48:38;3.92;;;2.15;;
56653;SDS011;45096;52.302;4.634;2023-04-12T13:51:03;7.57;;;1.60;;
56653;SDS011;45096;52.302;4.634;2023-04-12T13:53:31;2.20;;;1.15;;
56653;SDS011;45096;52.302;4.634;2023-04-12T13:55:56;1.33;;;1.05;;
56653;SDS011;45096;52.302;4.634;2023-04-12T13:58:21;2.70;;;1.23;;
56653;SDS011;45096;52.302;4.634;2023-04-12T14:00:47;2.10;;;1.27;;
56653;SDS011;45096;52.302;4.634;2023-04-12T14:03:12;2.20;;;1.55;;
56653;SDS011;45096;52.302;4.634;2023-04-12T14:05:38;3.47;;;1.30;;
56653;SDS011;45096;52.302;4.634;2023-04-12T14:08:03;2.53;;;1.23;;
56653;SDS011;45096;52.302;4.634;2023-04-12T14:10:30;3.97;;;1.17;;
56653;SDS011;45096;52.302;4.634;2023-04-12T14:12:55;3.22;;;0.90;;
56653;SDS011;45096;52.302;4.634;2023-04-12T14:15:21;3.88;;;1.23;;
56653;SDS011;45096;52.302;4.634;2023-04-12T14:17:46;2.00;;;1.30;;
56653;SDS011;45096;52.302;4.634;2023-04-12T14:20:12;7.13;;;2.95;;
56653;SDS011;45096;52.302;4.634;2023-04-12T14:22:37;2.92;;;2.03;;
56653;SDS011;45096;52.302;4.634;2023-04-12T14:25:03;1.10;;;1.10;;
56653;SDS011;45096;52.302;4.634;2023-04-12T14:27:30;3.95;;;1.70;;
56653;SDS011;45096;52.302;4.634;2023-04-12T14:29:55;1.25;;;1.15;;
56653;SDS011;45096;52.302;4.634;2023-04-12T14:32:21;3.83;;;1.20;;
56653;SDS011;45096;52.302;4.634;2023-04-12T14:34:46;6.40;;;1.45;;
56653;SDS011;45096;52.302;4.634;2023-04-12T14:37:12;1.45;;;1.35;;
56653;SDS011;45096;52.302;4.634;2023-04-12T14:39:37;6.53;;;1.30;;
56653;SDS011;45096;52.302;4.634;2023-04-12T14:42:04;1.08;;;0.98;;
56653;SDS011;45096;52.302;4.634;2023-04-12T14:44:30;1.98;;;1.10;;
56653;SDS011;45096;52.302;4.634;2023-04-12T14:46:56;3.88;;;1.30;;
56653;SDS011;45096;52.302;4.634;2023-04-12T14:49:21;4.10;;;1.80;;